KFKR

Details ICAO KFKR
Name FRANKFORT MUNI
Region United States
Timezone America/Indiana/Indianapolis (UTC-4.0)
Plans Departing 4
Arriving 6
Stats Elevation 861 ft / 262 m (AMSL)
Location 40.273799° -86.563265°
Runways 2
Magnetic Variation 4.537° W
Sunrise 2018-05-23 10:25:11 UTC / 2018-05-23 06:25:11 Local
Sunset 2018-05-24 01:03:43 UTC / 2018-05-23 21:03:43 Local
Advertisement - Login to hide

Runways

ID Width Length Bearing (true) Bearing (mag) Surface Threshold Offset Overrun Length
04 70 ft / 21 m 2,529 ft / 771 m 34.09° 38.63° Asphalt 0 ft / 0 m 0 ft / 0 m
09 75 ft / 23 m 4,988 ft / 1,520 m 90.03° 94.57° Asphalt 0 ft / 0 m 0 ft / 0 m
22 70 ft / 21 m 2,529 ft / 771 m 214.10° 218.64° Asphalt 0 ft / 0 m 0 ft / 0 m
27 75 ft / 23 m 4,988 ft / 1,520 m 270.04° 274.58° Asphalt 0 ft / 0 m 0 ft / 0 m

Map

Weather


0- 5 10 15 20 25 30 35+ Temperature / ° C

Clouds and Precipitation
Forecast for 2018-05-24 00:00 UTC. Updated 5 hours ago

Ground ~20,000 ft ~40,000 ft Winds

METAR

KFKR 240435Z AUTO 11005KT 10SM CLR 19/12 A3021 RMK AO2 T01890115

TAF

Not found

Frequencies

Recorded 124.32 MHz AWOS 3
Unicom 123.00 MHz CTAF/UNICOM
Warning: Do not use this data for real-world aviation or navigation. No guarantee of current accuracy is given.